Cherry Valley, IL (61016)

5:52 AM CST on February 06, 2016 (GMT -0600)
Valley View | | Change Station
CLOSE
Current Station
Personal Weather Station
Location: Cherry Valley, IL
Elevation: 778 ft
Nearby Weather Stations

Elev 778 ft 42.22 °N, 88.97 °W | Updated 13 minutes ago

Clear
Clear
23.0 °F
Feels Like 23 °F
N
0.0
Wind Variable Wind from South

Today
High -- | Low -- °F
--% Chance of Precip.
Yesterday
High -- | Low -- °F
Precip. -- in
Pressure 30.31 in
Visibility 9.0 miles
Clouds Clear
Windchill 23 °F
Dew Point 21 °F
Humidity 92%
Rainfall 0.00 in
Snow Depth Not available.
7:04 AM 5:16 PM
Waning Crescent, 6% visible
METAR KRFD 061054Z 21004KT 9SM CLR M03/M06 A3028 RMK AO2 SLP263 T10331061
Pressure 30.31 in
Visibility 9.0 miles
Clouds Clear
Windchill 23 °F
Dew Point 21 °F
Humidity 92%
Rainfall 0.00 in
Snow Depth Not available.
7:04 AM 5:16 PM
Waning Crescent, 6% visible
METAR KRFD 061054Z 21004KT 9SM CLR M03/M06 A3028 RMK AO2 SLP263 T10331061

10-Day Weather Forecast

Almanac

Astronomy

Feb. 06, 2016 Rise Set
Actual Time
Civil Twilight
Nautical Twilight
Astronomical Twilight
Moon
Length of Visible Light
Length of Day
Tomorrow will be .
, % of the Moon is Illuminated

Today's Extremes

State Highs State Lows

Community

WunderPhotos

Upload Photos

1,890,944 photos uploaded!

WunderBlog® & News

Nearby

Air Quality

  Air Quality AQ Index Pollutant
Not available.

Snow Depth

Station Depth Elevation

Earthquake Activity

City Distance Mag. Time & Date
Minimum magnitude displayed is 2.5.

Coastal Water Temperatures

Place Temperature

Stations

Nearby Weather Stations

Station Location Temp. Windchill Dew Point Humidity Wind Precip. Elev Updated Type
                   

Watches & Warnings

There are currently no watches in effect.